Time;durP1;ratioP1;P1;durP2;ratioP2;P2;SDS_P1;SDS_P2;PMS_P1;PMS_P2;Temp;Humidity;BMP_temperature;BMP_pressure;BME280_temperature;BME280_humidity;BME280_pressure;Samples;Min_cycle;Max_cycle;Signal;HPM_P1;HPM_P2
2023/02/21 02:14:32;;;;;;;65.87;36.53;;;;;;;;;;5057085;28;20881;-76
2023/02/21 02:17:06;;;;;;;66.00;35.43;;;;;;;;;;5056498;28;20044;-75
2023/02/21 02:19:54;;;;;;;66.77;36.13;;;;;;;;;;5047178;28;20021;-75
2023/02/21 02:22:23;;;;;;;70.07;36.33;;;;;;;;;;5046086;28;20120;-76
2023/02/21 02:24:49;;;;;;;64.67;36.70;;;;;;;;;;5057099;28;20057;-74
2023/02/21 02:27:24;;;;;;;76.40;43.77;;;;;;;;;;5056431;28;20090;-75
2023/02/21 02:30:06;;;;;;;76.73;41.10;;;;;;;;;;5055001;28;20033;-75
2023/02/21 02:32:41;;;;;;;73.13;41.50;;;;;;;;;;5038276;28;20499;-75
2023/02/21 02:35:13;;;;;;;71.70;37.57;;;;;;;;;;5043305;28;20101;-75
2023/02/21 02:37:45;;;;;;;72.38;37.50;;;;;;;;;;5054780;28;20071;-76
2023/02/21 02:40:41;;;;;;;69.53;40.00;;;;;;;;;;5054781;28;20036;-74
2023/02/21 02:43:15;;;;;;;73.03;39.53;;;;;;;;;;4997348;28;20046;-75
2023/02/21 02:45:58;;;;;;;78.37;43.10;;;;;;;;;;5071573;28;20028;-75
2023/02/21 02:48:30;;;;;;;69.13;38.53;;;;;;;;;;5049770;28;20036;-76
2023/02/21 02:50:58;;;;;;;69.13;37.58;;;;;;;;;;5045243;28;20032;-75
2023/02/21 02:53:28;;;;;;;76.10;38.60;;;;;;;;;;5061548;28;20348;-75
2023/02/21 02:55:56;;;;;;;72.27;41.07;;;;;;;;;;5060684;28;20028;-76
2023/02/21 02:58:23;;;;;;;76.30;39.17;;;;;;;;;;5054359;28;20025;-76
2023/02/21 03:00:59;;;;;;;66.13;36.57;;;;;;;;;;5077093;28;20028;-76
2023/02/21 03:03:30;;;;;;;66.37;36.87;;;;;;;;;;5078119;28;20048;-75
2023/02/21 03:06:07;;;;;;;70.13;38.07;;;;;;;;;;5060858;28;20154;-76
2023/02/21 03:08:52;;;;;;;70.60;37.23;;;;;;;;;;5059617;28;20025;-76
2023/02/21 03:11:20;;;;;;;67.07;35.53;;;;;;;;;;5056837;28;20020;-77
2023/02/21 03:14:11;;;;;;;67.67;35.77;;;;;;;;;;5070553;28;20137;-76
2023/02/21 03:16:44;;;;;;;63.47;36.60;;;;;;;;;;5051580;28;20033;-76
2023/02/21 03:19:12;;;;;;;66.00;35.00;;;;;;;;;;5077316;28;20099;-76
2023/02/21 03:21:40;;;;;;;63.03;33.83;;;;;;;;;;5060153;28;20070;-76
2023/02/21 03:24:07;;;;;;;66.20;36.10;;;;;;;;;;5059879;28;20051;-75
2023/02/21 03:26:39;;;;;;;68.13;35.47;;;;;;;;;;5076912;28;20056;-75
2023/02/21 03:29:06;;;;;;;63.53;32.70;;;;;;;;;;5054890;28;20017;-76
2023/02/21 03:31:36;;;;;;;63.77;36.73;;;;;;;;;;5071249;28;20690;-76
2023/02/21 03:34:02;;;;;;;63.20;32.90;;;;;;;;;;5057311;28;20111;-76
2023/02/21 03:36:28;;;;;;;64.80;32.40;;;;;;;;;;5049357;28;20121;-76
2023/02/21 03:38:53;;;;;;;65.00;34.33;;;;;;;;;;5058013;28;20111;-75
2023/02/21 03:41:20;;;;;;;69.83;33.43;;;;;;;;;;5080955;28;20060;-76
2023/02/21 03:43:46;;;;;;;64.87;32.33;;;;;;;;;;5067865;28;20016;-75
2023/02/21 03:46:12;;;;;;;66.00;32.27;;;;;;;;;;5075254;28;20095;-75
2023/02/21 03:48:38;;;;;;;60.50;32.90;;;;;;;;;;5059035;28;20039;-76
2023/02/21 03:51:04;;;;;;;60.80;31.60;;;;;;;;;;5059769;28;20028;-75
2023/02/21 03:53:30;;;;;;;71.23;34.13;;;;;;;;;;5059154;28;20033;-76
2023/02/21 03:55:56;;;;;;;58.50;30.47;;;;;;;;;;5056256;28;20029;-76
2023/02/21 03:58:22;;;;;;;59.23;29.53;;;;;;;;;;5061027;28;20028;-76
2023/02/21 04:00:50;;;;;;;55.93;30.33;;;;;;;;;;5059808;28;20027;-77
2023/02/21 04:03:18;;;;;;;57.93;29.83;;;;;;;;;;5062058;28;20451;-75
2023/02/21 04:05:44;;;;;;;55.00;30.93;;;;;;;;;;5054048;28;20104;-76
2023/02/21 04:08:10;;;;;;;59.63;29.60;;;;;;;;;;5056640;28;20483;-77
2023/02/21 04:10:36;;;;;;;60.67;30.77;;;;;;;;;;5046822;28;20036;-77
2023/02/21 04:13:02;;;;;;;61.30;28.40;;;;;;;;;;5073386;28;20056;-76
2023/02/21 04:15:28;;;;;;;63.30;32.23;;;;;;;;;;5070253;28;20063;-76
2023/02/21 04:17:54;;;;;;;58.03;29.73;;;;;;;;;;5055105;28;20032;-76
2023/02/21 04:20:20;;;;;;;58.17;30.37;;;;;;;;;;5042320;28;20032;-76
2023/02/21 04:22:46;;;;;;;62.47;31.50;;;;;;;;;;5056903;28;20029;-76
2023/02/21 04:25:12;;;;;;;58.90;29.80;;;;;;;;;;5042252;28;20032;-76
2023/02/21 04:27:38;;;;;;;56.63;28.63;;;;;;;;;;5042882;28;20031;-75
2023/02/21 04:30:04;;;;;;;56.60;29.60;;;;;;;;;;5058800;28;20445;-76
2023/02/21 04:32:30;;;;;;;53.47;28.73;;;;;;;;;;5059326;28;20056;-76
2023/02/21 04:34:58;;;;;;;62.07;31.40;;;;;;;;;;5059386;28;20071;-75
2023/02/21 04:37:24;;;;;;;58.03;29.27;;;;;;;;;;5059970;28;20032;-76
2023/02/21 04:39:50;;;;;;;59.23;29.60;;;;;;;;;;5058908;28;20032;-76
2023/02/21 04:42:16;;;;;;;57.77;28.90;;;;;;;;;;5043444;28;20127;-75
2023/02/21 04:44:42;;;;;;;58.60;29.03;;;;;;;;;;5041728;28;20457;-76
2023/02/21 04:47:08;;;;;;;55.03;26.87;;;;;;;;;;5061419;28;20036;-76
2023/02/21 04:49:34;;;;;;;52.20;27.90;;;;;;;;;;5045507;28;20571;-76
2023/02/21 04:52:00;;;;;;;58.00;29.90;;;;;;;;;;5058006;28;20047;-75
2023/02/21 04:54:26;;;;;;;54.20;27.57;;;;;;;;;;5058494;28;20099;-76
2023/02/21 04:56:52;;;;;;;61.63;29.90;;;;;;;;;;5042401;28;20037;-76
2023/02/21 04:59:18;;;;;;;56.70;28.57;;;;;;;;;;5044069;28;20037;-77
2023/02/21 05:01:44;;;;;;;57.43;29.57;;;;;;;;;;5039353;28;20021;-76
2023/02/21 05:04:10;;;;;;;54.00;28.03;;;;;;;;;;5058906;28;20089;-75
2023/02/21 05:06:38;;;;;;;62.00;30.87;;;;;;;;;;5045670;28;20028;-77
2023/02/21 05:09:04;;;;;;;60.60;29.07;;;;;;;;;;5046052;28;20159;-76
2023/02/21 05:11:33;;;;;;;56.70;27.50;;;;;;;;;;5057004;28;20147;-76
2023/02/21 05:13:59;;;;;;;62.33;31.10;;;;;;;;;;5056534;28;20025;-76
2023/02/21 05:16:26;;;;;;;59.27;29.07;;;;;;;;;;5050832;28;20028;-76
2023/02/21 05:18:52;;;;;;;56.40;29.40;;;;;;;;;;5044913;28;20040;-75
2023/02/21 05:21:18;;;;;;;61.50;29.63;;;;;;;;;;5049545;28;20025;-75
2023/02/21 05:23:54;;;;;;;59.53;29.87;;;;;;;;;;5057534;28;20459;-75
2023/02/21 05:26:21;;;;;;;57.33;27.77;;;;;;;;;;5061663;28;20119;-75
2023/02/21 05:28:47;;;;;;;54.80;27.80;;;;;;;;;;5056407;28;20025;-76
2023/02/21 05:31:13;;;;;;;59.43;28.63;;;;;;;;;;5058377;28;20686;-75
2023/02/21 05:33:39;;;;;;;55.10;28.07;;;;;;;;;;5041136;28;20029;-78
2023/02/21 05:36:07;;;;;;;58.30;28.50;;;;;;;;;;5058607;28;20040;-76
2023/02/21 05:38:43;;;;;;;58.93;29.47;;;;;;;;;;5041746;28;20024;-76
2023/02/21 05:41:09;;;;;;;62.43;27.53;;;;;;;;;;5059875;28;20055;-76
2023/02/21 05:43:37;;;;;;;61.80;31.50;;;;;;;;;;5042438;28;20462;-77
2023/02/21 05:46:03;;;;;;;64.13;30.20;;;;;;;;;;5062330;28;20032;-76
2023/02/21 05:48:29;;;;;;;59.77;30.03;;;;;;;;;;5045936;28;20044;-77
2023/02/21 05:50:55;;;;;;;62.63;28.60;;;;;;;;;;5044883;28;20037;-76
2023/02/21 05:53:21;;;;;;;59.03;28.73;;;;;;;;;;5043520;28;20024;-75
2023/02/21 05:55:47;;;;;;;59.00;28.87;;;;;;;;;;5043953;28;20024;-76
2023/02/21 05:58:15;;;;;;;59.97;30.30;;;;;;;;;;5059288;28;20467;-76
2023/02/21 06:00:41;;;;;;;61.57;28.97;;;;;;;;;;5043219;28;20032;-76
2023/02/21 06:03:07;;;;;;;58.27;29.30;;;;;;;;;;5058260;28;20024;-76
2023/02/21 06:05:33;;;;;;;60.73;30.23;;;;;;;;;;5043828;28;20032;-76
2023/02/21 06:08:02;;;;;;;60.40;29.70;;;;;;;;;;5058328;28;20059;-76
2023/02/21 06:10:27;;;;;;;59.43;29.53;;;;;;;;;;5054065;28;20093;-76
2023/02/21 06:12:53;;;;;;;59.20;29.97;;;;;;;;;;5057802;28;20029;-76
2023/02/21 06:15:19;;;;;;;61.07;30.27;;;;;;;;;;5039575;28;20040;-75
2023/02/21 06:17:45;;;;;;;61.30;29.87;;;;;;;;;;5054997;28;20036;-76
2023/02/21 06:20:13;;;;;;;68.43;32.30;;;;;;;;;;5040227;28;20040;-76
2023/02/21 06:22:39;;;;;;;75.47;34.43;;;;;;;;;;5042714;28;20568;-76
2023/02/21 06:25:06;;;;;;;72.93;34.60;;;;;;;;;;5058524;28;20028;-77
2023/02/21 06:27:32;;;;;;;75.83;34.23;;;;;;;;;;5058646;28;20033;-76
2023/02/21 06:29:58;;;;;;;69.93;34.23;;;;;;;;;;5041388;28;20048;-76
2023/02/21 06:32:26;;;;;;;71.43;34.70;;;;;;;;;;5052629;28;20033;-76
2023/02/21 06:34:52;;;;;;;72.93;32.87;;;;;;;;;;5039887;28;20124;-77
2023/02/21 06:37:18;;;;;;;70.30;34.30;;;;;;;;;;5042591;28;20538;-76
2023/02/21 06:39:44;;;;;;;73.30;34.43;;;;;;;;;;5055990;28;20033;-76
2023/02/21 06:42:14;;;;;;;67.97;34.00;;;;;;;;;;5038271;28;20037;-76
2023/02/21 06:44:43;;;;;;;74.37;33.90;;;;;;;;;;5041468;28;20044;-77
2023/02/21 06:47:09;;;;;;;82.30;37.00;;;;;;;;;;5041286;28;20040;-75
2023/02/21 06:49:39;;;;;;;81.90;37.47;;;;;;;;;;5057210;28;20035;-76
2023/02/21 06:52:08;;;;;;;82.73;36.63;;;;;;;;;;5056393;28;20032;-76
2023/02/21 06:54:34;;;;;;;79.83;37.30;;;;;;;;;;5057773;28;20115;-76
2023/02/21 06:57:02;;;;;;;80.03;37.47;;;;;;;;;;5056353;28;20505;-76
2023/02/21 06:59:28;;;;;;;86.03;38.10;;;;;;;;;;5039915;28;20028;-76
2023/02/21 07:01:55;;;;;;;80.63;37.83;;;;;;;;;;5039083;28;20907;-77
2023/02/21 07:04:21;;;;;;;81.67;36.03;;;;;;;;;;5049450;28;21229;-77
2023/02/21 07:06:47;;;;;;;79.03;34.90;;;;;;;;;;5040939;28;20028;-77
2023/02/21 07:09:13;;;;;;;78.63;37.00;;;;;;;;;;5057227;28;20534;-75
2023/02/21 07:11:39;;;;;;;81.60;36.63;;;;;;;;;;5057699;28;20108;-76
2023/02/21 07:14:05;;;;;;;80.70;38.10;;;;;;;;;;5039524;28;20121;-75
2023/02/21 07:16:31;;;;;;;91.20;37.53;;;;;;;;;;5038679;28;20033;-76
2023/02/21 07:18:57;;;;;;;91.83;38.10;;;;;;;;;;5021218;28;20049;-76
2023/02/21 07:21:25;;;;;;;84.50;37.43;;;;;;;;;;5020701;28;20052;-76
2023/02/21 07:23:51;;;;;;;85.07;37.60;;;;;;;;;;5020671;28;20040;-75
2023/02/21 07:26:19;;;;;;;81.50;36.43;;;;;;;;;;5022222;28;20041;-74
2023/02/21 07:28:48;;;;;;;84.07;38.63;;;;;;;;;;5037577;28;20120;-77
2023/02/21 07:31:15;;;;;;;81.23;37.20;;;;;;;;;;5039823;28;20083;-76
2023/02/21 07:33:41;;;;;;;81.17;34.87;;;;;;;;;;5020211;28;20071;-75
2023/02/21 07:36:07;;;;;;;79.67;36.33;;;;;;;;;;5036987;28;20037;-76
2023/02/21 07:38:33;;;;;;;75.47;34.70;;;;;;;;;;5029085;28;21257;-75
2023/02/21 07:41:01;;;;;;;82.27;35.10;;;;;;;;;;5026943;28;20029;-75
2023/02/21 07:43:27;;;;;;;74.93;35.10;;;;;;;;;;5040007;28;20033;-75
2023/02/21 07:45:54;;;;;;;75.57;36.33;;;;;;;;;;5025504;28;20443;-75
2023/02/21 07:48:20;;;;;;;83.03;35.93;;;;;;;;;;5056737;28;20103;-75
2023/02/21 07:50:46;;;;;;;80.37;35.87;;;;;;;;;;5061101;28;20051;-75
2023/02/21 07:53:12;;;;;;;82.07;37.57;;;;;;;;;;5043838;28;20449;-75
2023/02/21 07:55:38;;;;;;;78.67;38.03;;;;;;;;;;5052566;28;20048;-77
2023/02/21 07:58:05;;;;;;;76.80;34.67;;;;;;;;;;5044425;28;20036;-76
2023/02/21 08:00:31;;;;;;;80.17;35.07;;;;;;;;;;5060222;28;20029;-77
2023/02/21 08:02:59;;;;;;;85.57;37.83;;;;;;;;;;5061919;28;20456;-75
2023/02/21 08:05:26;;;;;;;86.50;37.87;;;;;;;;;;5060260;28;20104;-76
2023/02/21 08:07:52;;;;;;;93.23;39.27;;;;;;;;;;5043657;28;20025;-76
2023/02/21 08:10:20;;;;;;;87.37;36.70;;;;;;;;;;5060670;28;20025;-75
2023/02/21 08:12:48;;;;;;;97.37;41.37;;;;;;;;;;5061457;28;20373;-76
2023/02/21 08:15:16;;;;;;;92.57;39.27;;;;;;;;;;5057372;28;20104;-75
2023/02/21 08:17:42;;;;;;;93.17;39.10;;;;;;;;;;5059479;28;20052;-75
2023/02/21 08:20:08;;;;;;;85.30;36.87;;;;;;;;;;5056392;28;20041;-77
2023/02/21 08:22:36;;;;;;;85.00;36.87;;;;;;;;;;5047252;28;20044;-76
2023/02/21 08:25:02;;;;;;;83.43;36.63;;;;;;;;;;5060373;28;20029;-75
2023/02/21 08:27:28;;;;;;;77.57;33.77;;;;;;;;;;5059757;28;20036;-75
2023/02/21 08:29:54;;;;;;;81.73;34.70;;;;;;;;;;5043118;28;20039;-75
2023/02/21 08:32:20;;;;;;;71.70;32.73;;;;;;;;;;5040054;28;20456;-76
2023/02/21 08:34:47;;;;;;;73.67;30.17;;;;;;;;;;5046780;28;20033;-75
2023/02/21 08:37:19;;;;;;;72.13;33.40;;;;;;;;;;5044866;28;20046;-76
2023/02/21 08:39:50;;;;;;;74.72;30.98;;;;;;;;;;5042312;28;20024;-75
2023/02/21 08:42:19;;;;;;;64.88;28.67;;;;;;;;;;5058173;28;20036;-76
2023/02/21 08:44:46;;;;;;;68.77;30.57;;;;;;;;;;5058539;28;20174;-76
2023/02/21 08:47:12;;;;;;;65.13;30.47;;;;;;;;;;5058146;28;20048;-76
2023/02/21 08:49:38;;;;;;;64.93;29.37;;;;;;;;;;5058775;28;20036;-75
2023/02/21 08:52:05;;;;;;;67.80;32.93;;;;;;;;;;5040583;28;20033;-76
2023/02/21 08:54:31;;;;;;;75.70;33.67;;;;;;;;;;5055624;28;20025;-76
2023/02/21 08:56:57;;;;;;;75.90;34.67;;;;;;;;;;5058541;28;20032;-76
2023/02/21 08:59:24;;;;;;;79.57;34.60;;;;;;;;;;5057971;28;20028;-76
2023/02/21 09:01:50;;;;;;;85.07;36.23;;;;;;;;;;5058845;28;20500;-76
2023/02/21 09:04:16;;;;;;;79.77;35.87;;;;;;;;;;5058735;28;20104;-76
2023/02/21 09:06:42;;;;;;;72.17;32.80;;;;;;;;;;5057632;28;20029;-75
2023/02/21 09:09:08;;;;;;;82.67;35.73;;;;;;;;;;5041717;28;20032;-76
2023/02/21 09:11:36;;;;;;;79.73;34.63;;;;;;;;;;5058204;28;20090;-76
2023/02/21 09:14:04;;;;;;;84.97;34.43;;;;;;;;;;5045102;28;20016;-76
2023/02/21 09:16:31;;;;;;;77.07;33.97;;;;;;;;;;5056936;28;20384;-76
2023/02/21 09:18:58;;;;;;;84.90;34.17;;;;;;;;;;5057397;28;20029;-76
2023/02/21 09:21:24;;;;;;;80.03;34.93;;;;;;;;;;5053422;28;20032;-76
2023/02/21 09:23:55;;;;;;;75.77;32.60;;;;;;;;;;5053296;28;20032;-76
2023/02/21 09:26:22;;;;;;;69.57;32.43;;;;;;;;;;5057871;28;20066;-76
2023/02/21 09:28:49;;;;;;;67.93;32.10;;;;;;;;;;5064923;28;20021;-76
2023/02/21 09:31:15;;;;;;;67.40;32.37;;;;;;;;;;5075545;28;20107;-76
2023/02/21 09:33:41;;;;;;;71.93;31.77;;;;;;;;;;5057838;28;20125;-76
2023/02/21 09:36:10;;;;;;;75.70;32.80;;;;;;;;;;5057536;28;20043;-76
2023/02/21 09:38:40;;;;;;;70.17;33.03;;;;;;;;;;5053617;28;20039;-76
2023/02/21 09:41:09;;;;;;;68.93;30.60;;;;;;;;;;5056787;28;20132;-75
2023/02/21 09:43:40;;;;;;;61.33;27.33;;;;;;;;;;5057891;28;20468;-76
2023/02/21 09:46:13;;;;;;;69.07;29.63;;;;;;;;;;5060521;28;20048;-76
2023/02/21 09:48:38;;;;;;;;;;;;;;;;;;5053727;28;20032;-76
2023/02/21 09:51:06;;;;;;;68.17;28.23;;;;;;;;;;5057720;28;19915;-76
2023/02/21 09:53:38;;;;;;;68.67;29.33;;;;;;;;;;5037495;28;20466;-76
2023/02/21 09:56:05;;;;;;;68.40;30.40;;;;;;;;;;5070669;28;20024;-77
2023/02/21 09:58:33;;;;;;;64.20;27.77;;;;;;;;;;5050813;28;20039;-76
2023/02/21 10:01:03;;;;;;;63.27;28.07;;;;;;;;;;5074207;28;20025;-77
2023/02/21 10:03:30;;;;;;;63.10;29.00;;;;;;;;;;5075213;28;20429;-76
2023/02/21 10:06:15;;;;;;;63.67;29.63;;;;;;;;;;5055828;28;20020;-76
2023/02/21 10:08:49;;;;;;;68.43;31.70;;;;;;;;;;5050916;28;20450;-76
2023/02/21 10:11:26;;;;;;;68.30;31.27;;;;;;;;;;5057672;28;20108;-76
2023/02/21 10:13:56;;;;;;;60.70;30.70;;;;;;;;;;5056416;28;20046;-76
2023/02/21 10:16:48;;;;;;;63.80;27.97;;;;;;;;;;5072892;28;20105;-76
2023/02/21 10:19:28;;;;;;;59.92;28.60;;;;;;;;;;5031186;28;20049;-78
2023/02/21 10:21:57;;;;;;;65.57;30.03;;;;;;;;;;5038740;28;20033;-76
2023/02/21 10:24:24;;;;;;;63.10;28.23;;;;;;;;;;5058843;28;20145;-77
2023/02/21 10:26:53;;;;;;;58.83;27.63;;;;;;;;;;5043356;28;20047;-76
2023/02/21 10:29:45;;;;;;;64.07;30.20;;;;;;;;;;5056911;28;20094;-76
2023/02/21 10:32:11;;;;;;;67.43;29.88;;;;;;;;;;5054894;28;20045;-76
2023/02/21 10:34:37;;;;;;;62.07;29.73;;;;;;;;;;5054737;28;20443;-76
2023/02/21 10:37:18;;;;;;;62.83;29.27;;;;;;;;;;5048712;28;20040;-76
2023/02/21 10:39:48;;;;;;;66.10;30.90;;;;;;;;;;5055920;28;20356;-77
2023/02/21 10:42:21;;;;;;;69.93;32.17;;;;;;;;;;5045494;28;20048;-74
2023/02/21 10:44:47;;;;;;;;;;;;;;;;;;5043664;28;20159;-77
2023/02/21 10:47:13;;;;;;;62.10;30.17;;;;;;;;;;5057838;28;20038;-76
2023/02/21 10:50:11;;;;;;;59.57;29.20;;;;;;;;;;5044276;28;20036;-78
2023/02/21 10:52:45;;;;;;;61.90;32.73;;;;;;;;;;5019253;28;20068;-76
2023/02/21 10:55:22;;;;;;;62.77;31.70;;;;;;;;;;5056337;28;20102;-75
2023/02/21 10:57:51;;;;;;;61.93;32.73;;;;;;;;;;5055387;28;20044;-77
2023/02/21 11:00:37;;;;;;;69.50;34.87;;;;;;;;;;5051915;28;20025;-77
2023/02/21 11:03:12;;;;;;;65.63;35.27;;;;;;;;;;5056552;28;20036;-76
2023/02/21 11:05:38;;;;;;;68.80;35.10;;;;;;;;;;5057596;28;20078;-77
2023/02/21 11:08:06;;;;;;;79.63;38.90;;;;;;;;;;5043638;28;20032;-76
2023/02/21 11:10:40;;;;;;;67.43;37.40;;;;;;;;;;5060639;28;20029;-76
2023/02/21 11:13:12;;;;;;;76.97;38.23;;;;;;;;;;5064324;28;20069;-75
2023/02/21 11:15:38;;;;;;;74.45;35.70;;;;;;;;;;5046901;28;20032;-76
2023/02/21 11:18:13;;;;;;;74.33;37.77;;;;;;;;;;5062290;28;20178;-76
2023/02/21 11:20:39;;;;;;;69.77;35.20;;;;;;;;;;5059074;28;20097;-77
2023/02/21 11:23:17;;;;;;;69.23;36.73;;;;;;;;;;5060102;28;20472;-75
2023/02/21 11:25:45;;;;;;;74.20;39.07;;;;;;;;;;5042954;28;20029;-76
2023/02/21 11:28:16;;;;;;;74.17;38.93;;;;;;;;;;5059692;28;20067;-76
2023/02/21 11:31:00;;;;;;;67.63;38.10;;;;;;;;;;5049631;28;20021;-76
2023/02/21 11:33:27;;;;;;;74.30;39.10;;;;;;;;;;5060833;28;20128;-76
2023/02/21 11:36:05;;;;;;;70.57;38.33;;;;;;;;;;5043409;28;20069;-76
2023/02/21 11:38:42;;;;;;;75.07;40.30;;;;;;;;;;5043900;28;20524;-76
2023/02/21 11:41:37;;;;;;;73.80;39.87;;;;;;;;;;5063248;28;20028;-76
2023/02/21 11:44:21;;;;;;;73.90;39.83;;;;;;;;;;5029421;28;20517;-76
2023/02/21 11:46:49;;;;;;;72.97;40.00;;;;;;;;;;5061345;28;20117;-76
2023/02/21 11:49:26;;;;;;;68.73;39.13;;;;;;;;;;5041783;28;20029;-75
2023/02/21 11:51:56;;;;;;;70.67;40.90;;;;;;;;;;5059686;28;20033;-76
2023/02/21 11:54:25;;;;;;;70.63;40.00;;;;;;;;;;5043729;28;20025;-76
2023/02/21 11:57:01;;;;;;;69.93;39.40;;;;;;;;;;5041152;28;20043;-77
2023/02/21 11:59:27;;;;;;;73.07;38.07;;;;;;;;;;5059383;28;20456;-76
2023/02/21 12:02:11;;;;;;;66.93;37.00;;;;;;;;;;5040943;28;20048;-77
2023/02/21 12:04:37;;;;;;;75.17;40.57;;;;;;;;;;5045457;28;20035;-77
2023/02/21 12:07:12;;;;;;;67.93;37.83;;;;;;;;;;5060732;28;20439;-77
2023/02/21 12:09:46;;;;;;;66.00;36.70;;;;;;;;;;5050517;28;20036;-76
2023/02/21 12:12:12;;;;;;;65.77;36.90;;;;;;;;;;5059500;28;20033;-76
2023/02/21 12:15:00;;;;;;;63.73;38.47;;;;;;;;;;5042581;28;20029;-77
2023/02/21 12:17:45;;;;;;;62.53;36.00;;;;;;;;;;5060540;28;20081;-76
2023/02/21 12:20:11;;;;;;;62.83;36.47;;;;;;;;;;5041273;28;20044;-77
2023/02/21 12:22:46;;;;;;;65.55;35.83;;;;;;;;;;5042385;28;20028;-76
2023/02/21 12:25:30;;;;;;;62.92;34.17;;;;;;;;;;5058658;28;20032;-77
2023/02/21 12:28:05;;;;;;;64.60;36.47;;;;;;;;;;5045957;28;20043;-76
2023/02/21 12:30:43;;;;;;;63.30;34.28;;;;;;;;;;5038441;28;20036;-75
2023/02/21 12:33:15;;;;;;;66.07;36.50;;;;;;;;;;5058441;28;20048;-76
2023/02/21 12:35:41;;;;;;;65.07;35.88;;;;;;;;;;5042003;28;20127;-77
2023/02/21 12:38:22;;;;;;;65.37;38.37;;;;;;;;;;5040793;28;20083;-76
2023/02/21 12:41:07;;;;;;;65.70;37.57;;;;;;;;;;5057098;28;20024;-78
2023/02/21 12:43:41;;;;;;;63.13;35.97;;;;;;;;;;5058471;28;20036;-75
2023/02/21 12:46:20;;;;;;;62.77;36.20;;;;;;;;;;5057602;28;20091;-75
2023/02/21 12:48:53;;;;;;;63.63;36.13;;;;;;;;;;5056827;28;20039;-75
2023/02/21 12:51:21;;;;;;;61.97;34.33;;;;;;;;;;5056522;28;20029;-77
2023/02/21 12:53:51;;;;;;;68.80;38.50;;;;;;;;;;5043983;28;20056;-76
2023/02/21 12:56:28;;;;;;;70.27;37.83;;;;;;;;;;5042116;28;20037;-76
2023/02/21 12:59:03;;;;;;;63.70;34.60;;;;;;;;;;5058125;28;20822;-77
2023/02/21 13:01:33;;;;;;;73.07;38.53;;;;;;;;;;5044258;28;20147;-75
2023/02/21 13:04:18;;;;;;;61.30;36.17;;;;;;;;;;5039351;28;20039;-76
2023/02/21 13:06:44;;;;;;;59.45;35.17;;;;;;;;;;5049942;28;20463;-76
2023/02/21 13:09:21;;;;;;;63.80;36.65;;;;;;;;;;5041003;28;20032;-77
2023/02/21 13:12:00;;;;;;;59.30;34.75;;;;;;;;;;5058237;28;20915;-77
2023/02/21 13:14:28;;;;;;;63.20;35.67;;;;;;;;;;5058046;28;20040;-75
2023/02/21 13:16:54;;;;;;;67.72;36.03;;;;;;;;;;5056262;28;20092;-77
2023/02/21 13:19:23;;;;;;;66.53;36.57;;;;;;;;;;5041483;28;20017;-76
2023/02/21 13:21:52;;;;;;;66.40;37.27;;;;;;;;;;5041673;28;20021;-77
2023/02/21 13:24:46;;;;;;;63.27;37.33;;;;;;;;;;5045002;28;20071;-77
2023/02/21 13:27:18;;;;;;;65.87;36.20;;;;;;;;;;5042731;28;20041;-76
2023/02/21 13:29:44;;;;;;;63.03;35.33;;;;;;;;;;5055481;28;20029;-76
2023/02/21 13:32:15;;;;;;;68.47;37.20;;;;;;;;;;5056997;28;20028;-76
2023/02/21 13:34:46;;;;;;;68.30;36.10;;;;;;;;;;5040492;28;20537;-77
2023/02/21 13:37:20;;;;;;;64.23;35.50;;;;;;;;;;5056077;28;20124;-76
2023/02/21 13:39:50;;;;;;;68.33;36.13;;;;;;;;;;5057257;28;20021;-77
2023/02/21 13:42:21;;;;;;;72.33;38.17;;;;;;;;;;5043216;28;20043;-76
2023/02/21 13:44:49;;;;;;;69.27;37.20;;;;;;;;;;5057169;28;20025;-75
2023/02/21 13:47:16;;;;;;;80.03;37.33;;;;;;;;;;5059087;28;20467;-77
2023/02/21 13:49:51;;;;;;;60.70;35.43;;;;;;;;;;5057826;28;20029;-75
2023/02/21 13:52:23;;;;;;;65.63;35.13;;;;;;;;;;5057836;28;20116;-76
2023/02/21 13:55:08;;;;;;;63.60;35.22;;;;;;;;;;5040516;28;20440;-76
2023/02/21 13:57:35;;;;;;;58.60;33.00;;;;;;;;;;5044850;28;20047;-75
2023/02/21 14:00:17;;;;;;;61.25;33.17;;;;;;;;;;5056671;28;20017;-76
2023/02/21 14:02:53;;;;;;;62.17;34.08;;;;;;;;;;5044914;28;20029;-76
2023/02/21 14:05:19;;;;;;;68.90;35.87;;;;;;;;;;5049383;28;20031;-76
2023/02/21 14:08:06;;;;;;;62.93;34.33;;;;;;;;;;5056400;28;20028;-77
2023/02/21 14:10:32;;;;;;;65.33;33.83;;;;;;;;;;5057309;28;20037;-75
2023/02/21 14:12:59;;;;;;;69.33;37.03;;;;;;;;;;5039999;28;20039;-76
2023/02/21 14:15:42;;;;;;;67.93;35.33;;;;;;;;;;5055807;28;20029;-75
2023/02/21 14:18:15;;;;;;;67.50;37.13;;;;;;;;;;5055593;28;20040;-75
2023/02/21 14:20:44;;;;;;;65.50;36.63;;;;;;;;;;5055551;28;20032;-75
2023/02/21 14:23:16;;;;;;;62.23;36.47;;;;;;;;;;5044679;28;20039;-75
2023/02/21 14:25:42;;;;;;;64.70;35.45;;;;;;;;;;5057297;28;21677;-76
2023/02/21 14:28:28;;;;;;;62.33;32.97;;;;;;;;;;5054602;28;20073;-77
2023/02/21 14:31:01;;;;;;;66.60;35.57;;;;;;;;;;5054660;28;20025;-76
2023/02/21 14:33:29;;;;;;;65.20;35.00;;;;;;;;;;5058098;28;20040;-77
2023/02/21 14:36:06;;;;;;;60.90;35.57;;;;;;;;;;5054360;28;20069;-76
2023/02/21 14:38:35;;;;;;;62.97;33.63;;;;;;;;;;5058431;28;20033;-76
2023/02/21 14:41:24;;;;;;;64.97;33.17;;;;;;;;;;5049458;28;21280;-78
2023/02/21 14:44:09;;;;;;;65.33;34.23;;;;;;;;;;5050649;28;20051;-77
2023/02/21 14:46:39;;;;;;;55.57;30.80;;;;;;;;;;5076292;28;20053;-77
2023/02/21 14:49:17;;;;;;;60.70;32.23;;;;;;;;;;5089719;28;20048;-75
2023/02/21 14:51:53;;;;;;;63.80;34.43;;;;;;;;;;5066431;28;20055;-77
2023/02/21 14:54:28;;;;;;;63.57;33.33;;;;;;;;;;5073158;28;20040;-76
2023/02/21 14:56:57;;;;;;;62.33;32.57;;;;;;;;;;5063836;28;20031;-75
2023/02/21 14:59:26;;;;;;;67.20;34.53;;;;;;;;;;5054443;28;20021;-75
2023/02/21 15:01:56;;;;;;;60.23;32.20;;;;;;;;;;5065069;28;20035;-75
2023/02/21 15:04:28;;;;;;;62.30;33.37;;;;;;;;;;5056529;28;20025;-77
2023/02/21 15:07:03;;;;;;;59.95;33.38;;;;;;;;;;5077599;28;20035;-76
2023/02/21 15:09:31;;;;;;;50.90;29.90;;;;;;;;;;5083954;28;20039;-75
2023/02/21 15:11:58;;;;;;;56.80;30.53;;;;;;;;;;5061519;28;20008;-75
2023/02/21 15:14:26;;;;;;;56.60;29.90;;;;;;;;;;5050464;28;20048;-76
2023/02/21 15:16:56;;;;;;;49.33;28.43;;;;;;;;;;5063063;28;20017;-75
2023/02/21 15:19:30;;;;;;;51.97;29.10;;;;;;;;;;5054013;28;20029;-76
2023/02/21 15:22:26;;;;;;;47.00;26.50;;;;;;;;;;5082727;28;20020;-76
2023/02/21 15:24:58;;;;;;;45.57;26.23;;;;;;;;;;5056965;28;20029;-76
2023/02/21 15:27:24;;;;;;;45.47;26.48;;;;;;;;;;5062936;28;20031;-76
2023/02/21 15:30:14;;;;;;;48.53;26.23;;;;;;;;;;5080728;28;20100;-75
2023/02/21 15:32:40;;;;;;;46.53;26.57;;;;;;;;;;5055673;28;20075;-76
2023/02/21 15:35:07;;;;;;;43.63;25.77;;;;;;;;;;5075689;28;20100;-75
2023/02/21 15:37:35;;;;;;;52.00;28.57;;;;;;;;;;5089766;28;20032;-75
2023/02/21 15:40:10;;;;;;;51.30;27.77;;;;;;;;;;5065903;28;20036;-75
2023/02/21 15:42:36;;;;;;;52.27;30.47;;;;;;;;;;5059314;28;20028;-75
2023/02/21 15:45:10;;;;;;;52.07;28.90;;;;;;;;;;5054923;28;20451;-74
2023/02/21 15:47:39;;;;;;;56.20;32.03;;;;;;;;;;5071699;28;20433;-75
2023/02/21 15:50:17;;;;;;;59.83;32.40;;;;;;;;;;5077757;28;20033;-75
2023/02/21 15:52:50;;;;;;;63.13;31.70;;;;;;;;;;5066220;28;20433;-77
2023/02/21 15:55:16;;;;;;;62.57;33.93;;;;;;;;;;5076207;28;20118;-76
2023/02/21 15:57:43;;;;;;;60.23;33.53;;;;;;;;;;5066950;28;20108;-76
2023/02/21 16:00:18;;;;;;;67.73;34.97;;;;;;;;;;5065525;28;20029;-76
2023/02/21 16:02:44;;;;;;;73.93;38.20;;;;;;;;;;5050493;28;20030;-76
2023/02/21 16:05:27;;;;;;;77.07;40.10;;;;;;;;;;5059712;28;20063;-76
2023/02/21 16:07:59;;;;;;;83.00;40.93;;;;;;;;;;5055125;28;20467;-75
2023/02/21 16:10:25;;;;;;;82.25;41.15;;;;;;;;;;5058346;28;20061;-75
2023/02/21 16:12:56;;;;;;;78.93;42.13;;;;;;;;;;5059572;28;20041;-75
2023/02/21 16:15:22;;;;;;;86.17;43.23;;;;;;;;;;5065886;28;20024;-76
2023/02/21 16:17:56;;;;;;;89.17;44.77;;;;;;;;;;5064547;28;20043;-76
2023/02/21 16:20:30;;;;;;;100.13;47.87;;;;;;;;;;5059233;28;20115;-75
2023/02/21 16:23:15;;;;;;;100.03;48.50;;;;;;;;;;5043359;28;20043;-75
2023/02/21 16:25:56;;;;;;;95.00;45.07;;;;;;;;;;5060117;28;20036;-75
2023/02/21 16:28:22;;;;;;;91.13;48.30;;;;;;;;;;5055156;28;20956;-75
2023/02/21 16:30:48;;;;;;;100.07;51.10;;;;;;;;;;5058726;28;20029;-75
2023/02/21 16:33:14;;;;;;;102.03;48.60;;;;;;;;;;5041683;28;20059;-75
2023/02/21 16:35:40;;;;;;;100.10;48.97;;;;;;;;;;5042030;28;20036;-75
2023/02/21 16:38:08;;;;;;;102.77;50.70;;;;;;;;;;5050124;28;20111;-75
2023/02/21 16:40:37;;;;;;;110.30;52.63;;;;;;;;;;5051229;28;20032;-75
2023/02/21 16:43:04;;;;;;;110.03;53.20;;;;;;;;;;5059755;28;20056;-75
2023/02/21 16:45:30;;;;;;;101.60;50.10;;;;;;;;;;5044585;28;20024;-75
2023/02/21 16:48:00;;;;;;;104.70;48.30;;;;;;;;;;5058856;28;20384;-76